KMCF/MCF METAR and TAF weather

Enter ICAO airport designator
Station Type Date Time Source
KMCF METAR 2022/06/28 15:56 UTC NOAA

KMCF 281556Z AUTO 12006KT 10SM FEW090 FEW110 SCT140 SCT160 BKN190 BKN210 31/23 A3006 RMK AO2 SLP182 T03120230 FZRANO $


Station Type Date Time Source
KMCF Decoded METAR 2022/06/28 15:56 UTC NOAA

Macdill Air Force Base, Fl., FL, United States (KMCF) 27-51N 082-30W 4M
Jun 28, 2022 - 11:56 AM EDT / 2022.06.28 1556 UTC
Wind: from the ESE (120 degrees) at 7 MPH (6 KT):0
Visibility: 10 mile(s):0
Sky conditions: mostly cloudy
Temperature: 88.2 F (31.2 C)
Heat index: 96.1 F (35.6 C):1
Dew Point: 73.4 F (23.0 C)
Relative Humidity: 61%
Pressure (altimeter): 30.06 in. Hg (1017 hPa)
ob: KMCF 281556Z AUTO 12006KT 10SM FEW090 FEW110 SCT140 SCT160 BKN190 BKN210 31/23 A3006 RMK AO2 SLP182 T03120230 FZRANO
cycle: 16

Station Type Date Time Source
KMCF TAF 2022/06/28 09:06 UTC NOAA

TAF KMCF 280900Z 2809/2915 11006KT 9999 FEW020 QNH2997INS
BECMG 2820/2821 20009KT 9999 VCTS SCT030CB QNH3001INS
TEMPO 2821/2824 20010G15KT 6000 -TSRA BKN030CB
BECMG 2902/2903 VRB06KT 9999 NSW FEW020 BKN040 QNH3005INS TX33/2819Z TN24/2810Z

Example: see airport list